Time;durP1;ratioP1;P1;durP2;ratioP2;P2;SDS_P1;SDS_P2;PMS_P1;PMS_P2;Temp;Humidity;BMP_temperature;BMP_pressure;BME280_temperature;BME280_humidity;BME280_pressure;Samples;Min_cycle;Max_cycle;Signal;HPM_P1;HPM_P2
2023/02/05 00:02:22;;;;;;;;;;;;;;;-0.61;78.55;100384.41;4981977;28;19956;-65
2023/02/05 00:04:48;;;;;;;;;;;;;;;-0.61;78.41;100392.47;4985279;28;19960;-65
2023/02/05 00:07:13;;;;;;;;;;;;;;;-0.63;78.57;100386.44;4968324;28;19974;-66
2023/02/05 00:09:39;;;;;;;;;;;;;;;-0.66;78.54;100394.88;4985750;28;20666;-66
2023/02/05 00:12:07;;;;;;;;;;;;;;;-0.73;78.55;100392.13;4983904;28;20440;-65
2023/02/05 00:14:32;;;;;;;;;;;;;;;-0.70;78.56;100395.44;4970370;28;19937;-65
2023/02/05 00:16:58;;;;;;;;;;;;;;;-0.70;78.71;100395.44;4963749;28;19934;-65
2023/02/05 00:19:24;;;;;;;;;;;;;;;-0.71;78.58;100391.91;4976276;28;20313;-66
2023/02/05 00:21:49;;;;;;;;;;;;;;;-0.77;78.82;100390.81;4983801;28;20347;-65
2023/02/05 00:24:15;;;;;;;;;;;;;;;-0.78;78.67;100397.22;4967627;28;19930;-66
2023/02/05 00:26:41;;;;;;;;;;;;;;;-0.82;78.75;100395.91;4974661;28;19934;-65
2023/02/05 00:29:08;;;;;;;;;;;;;;;-0.76;78.54;100397.00;4984262;28;19957;-65
2023/02/05 00:31:34;;;;;;;;;;;;;;;-0.76;78.62;100397.84;4964594;28;19930;-66
2023/02/05 00:34:00;;;;;;;;;;;;;;;-0.77;78.54;100396.19;4966733;28;19984;-66
2023/02/05 00:36:26;;;;;;;;;;;;;;;-0.78;78.44;100397.22;4983596;28;19934;-66
2023/02/05 00:38:52;;;;;;;;;;;;;;;-0.78;78.45;100397.22;4967895;28;19964;-66
2023/02/05 00:41:18;;;;;;;;;;;;;;;-0.79;78.15;100400.06;4965212;28;19964;-66
2023/02/05 00:43:44;;;;;;;;;;;;;;;-0.97;78.20;100387.00;4965440;28;19929;-66
2023/02/05 00:46:11;;;;;;;;;;;;;;;-0.95;78.28;100404.59;4970959;28;19934;-65
2023/02/05 00:48:37;;;;;;;;;;;;;;;-0.97;78.15;100412.00;4984999;28;19934;-66
2023/02/05 00:51:03;;;;;;;;;;;;;;;-0.98;78.35;100402.28;4957644;28;19929;-65
2023/02/05 00:53:29;;;;;;;;;;;;;;;-1.02;78.14;100412.56;4970265;28;19936;-65
2023/02/05 00:55:55;;;;;;;;;;;;;;;-1.10;78.11;100407.25;4988600;28;19930;-66
2023/02/05 00:58:21;;;;;;;;;;;;;;;-1.17;78.30;100422.44;4971150;28;20508;-65
2023/02/05 01:00:48;;;;;;;;;;;;;;;-1.17;78.32;100412.53;4989127;28;19933;-66
2023/02/05 01:03:16;;;;;;;;;;;;;;;-1.23;78.54;100415.13;4990607;28;20425;-66
2023/02/05 01:05:42;;;;;;;;;;;;;;;-1.19;78.62;100417.25;4987664;28;20592;-66
2023/02/05 01:08:09;;;;;;;;;;;;;;;-1.15;78.58;100420.41;4986196;28;19930;-66
2023/02/05 01:10:36;;;;;;;;;;;;;;;-1.03;78.50;100423.47;4969868;28;19976;-66
2023/02/05 01:13:01;;;;;;;;;;;;;;;-1.08;78.19;100425.88;4969912;28;20156;-66
2023/02/05 01:15:27;;;;;;;;;;;;;;;-1.08;78.28;100417.81;4998588;28;19933;-66
2023/02/05 01:17:53;;;;;;;;;;;;;;;-1.11;78.48;100424.38;4969886;28;19930;-67
2023/02/05 01:20:20;;;;;;;;;;;;;;;-1.16;78.44;100419.59;4967892;28;19984;-66
2023/02/05 01:22:46;;;;;;;;;;;;;;;-1.09;78.35;100426.88;4972448;28;20296;-66
2023/02/05 01:25:12;;;;;;;;;;;;;;;-1.08;78.02;100424.03;4968933;28;20391;-67
2023/02/05 01:27:38;;;;;;;;;;;;;;;-1.13;78.15;100433.66;4971175;28;19930;-66
2023/02/05 01:30:04;;;;;;;;;;;;;;;-1.15;78.45;100425.75;4969776;28;19934;-67
2023/02/05 01:32:30;;;;;;;;;;;;;;;-1.16;78.39;100432.16;4970716;28;20206;-66
2023/02/05 01:34:56;;;;;;;;;;;;;;;-1.14;78.47;100430.13;4985156;28;19936;-67
2023/02/05 01:37:23;;;;;;;;;;;;;;;-1.06;78.51;100434.56;5002758;28;19929;-66
2023/02/05 01:39:49;;;;;;;;;;;;;;;-1.05;78.68;100431.72;4986457;28;19930;-66
2023/02/05 01:42:17;;;;;;;;;;;;;;;-1.07;78.51;100435.59;4969048;28;19930;-66
2023/02/05 01:44:43;;;;;;;;;;;;;;;-1.14;78.62;100440.84;4951481;28;20436;-66
2023/02/05 01:47:08;;;;;;;;;;;;;;;-1.11;78.60;100443.16;4957821;28;19929;-66
2023/02/05 01:49:36;;;;;;;;;;;;;;;-1.08;78.54;100444.66;4968780;28;20290;-66
2023/02/05 01:52:05;;;;;;;;;;;;;;;-1.05;78.28;100439.78;4966752;28;19980;-66
2023/02/05 01:54:34;;;;;;;;;;;;;;;-1.06;78.23;100438.09;4989116;28;19934;-66
2023/02/05 01:57:02;;;;;;;;;;;;;;;-1.06;78.37;100442.63;4968288;28;20372;-66
2023/02/05 01:59:29;;;;;;;;;;;;;;;-1.07;78.40;100452.53;4985682;28;19976;-66
2023/02/05 02:01:55;;;;;;;;;;;;;;;-1.09;78.32;100446.53;4970465;28;19937;-66
2023/02/05 02:04:29;;;;;;;;;;;;;;;-1.08;78.25;100447.34;4986912;28;19929;-66
2023/02/05 02:06:55;;;;;;;;;;;;;;;-1.09;78.20;100453.72;4972597;28;20036;-66
2023/02/05 02:09:21;;;;;;;;;;;;;;;-1.11;78.43;100461.13;4986221;28;20036;-66
2023/02/05 02:11:48;;;;;;;;;;;;;;;-1.19;78.52;100456.69;4952266;28;19941;-65
2023/02/05 02:14:14;;;;;;;;;;;;;;;-1.32;78.52;100447.38;4985394;28;19930;-65
2023/02/05 02:16:40;;;;;;;;;;;;;;;-1.23;78.64;100455.38;4987647;28;20730;-65
2023/02/05 02:19:08;;;;;;;;;;;;;;;-1.24;78.24;100459.91;4984448;28;20233;-65
2023/02/05 02:21:52;;;;;;;;;;;;;;;-1.24;78.29;100461.75;4983988;28;19929;-66
2023/02/05 02:24:28;;;;;;;;;;;;;;;-1.27;78.24;100462.94;4965942;28;20480;-65
2023/02/05 02:27:13;;;;;;;;;;;;;;;-1.30;78.13;100458.75;4986554;28;20361;-66
2023/02/05 02:29:45;;;;;;;;;;;;;;;-1.35;77.64;100469.22;4970587;28;19940;-65
2023/02/05 02:32:14;;;;;;;;;;;;;;;-1.38;77.85;100474.09;4969498;28;20282;-66
2023/02/05 02:34:43;;;;;;;;;;;;;;;-1.38;77.86;100466.91;4979509;28;20313;-65
2023/02/05 02:37:10;;;;;;;;;;;;;;;-1.35;77.40;100477.25;4986364;28;19936;-66
2023/02/05 02:39:39;;;;;;;;;;;;;;;-1.36;77.29;100470.22;4969233;28;19929;-66
2023/02/05 02:42:07;;;;;;;;;;;;;;;-1.38;77.06;100471.41;4967637;28;20158;-66
2023/02/05 02:44:36;;;;;;;;;;;;;;;-1.39;77.01;100475.13;4969915;28;19929;-66
2023/02/05 02:47:06;;;;;;;;;;;;;;;-1.43;77.05;100469.25;4986473;28;19930;-66
2023/02/05 02:49:35;;;;;;;;;;;;;;;-1.44;77.09;100467.59;4971131;28;19930;-66
2023/02/05 02:52:03;;;;;;;;;;;;;;;-1.44;77.15;100476.50;4967471;28;19930;-66
2023/02/05 02:54:29;;;;;;;;;;;;;;;-1.44;77.08;100468.44;4985099;28;19929;-66
2023/02/05 02:56:56;;;;;;;;;;;;;;;-1.50;77.17;100471.81;4949836;28;19980;-66
2023/02/05 02:59:23;;;;;;;;;;;;;;;-1.52;77.21;100467.69;4959907;28;19996;-66
2023/02/05 03:01:52;;;;;;;;;;;;;;;-1.58;77.43;100471.91;4982462;28;19988;-66
2023/02/05 03:04:23;;;;;;;;;;;;;;;-1.57;77.64;100468.19;4967492;28;19929;-66
2023/02/05 03:06:51;;;;;;;;;;;;;;;-1.58;77.80;100471.91;4986953;28;19934;-66
2023/02/05 03:09:19;;;;;;;;;;;;;;;-1.63;77.74;100466.25;4986839;28;19929;-66
2023/02/05 03:11:46;;;;;;;;;;;;;;;-1.64;78.01;100468.06;4987670;28;19941;-66
2023/02/05 03:14:12;;;;;;;;;;;;;;;-1.65;77.70;100477.13;4969442;28;19930;-66
2023/02/05 03:16:38;;;;;;;;;;;;;;;-1.70;77.70;100476.84;4969171;28;20471;-66
2023/02/05 03:19:05;;;;;;;;;;;;;;;-1.74;77.99;100475.50;4985386;28;19933;-66
2023/02/05 03:21:34;;;;;;;;;;;;;;;-1.75;78.22;100485.41;4984243;28;20413;-66
2023/02/05 03:24:00;;;;;;;;;;;;;;;-1.84;78.43;100489.16;4966862;28;20423;-66
2023/02/05 03:26:26;;;;;;;;;;;;;;;-1.85;78.21;100479.44;4971968;28;19930;-66
2023/02/05 03:28:59;;;;;;;;;;;;;;;-1.84;78.15;100485.66;4963755;28;20578;-66
2023/02/05 03:31:31;;;;;;;;;;;;;;;-1.86;78.15;100493.84;4957214;28;19952;-67
2023/02/05 03:34:06;;;;;;;;;;;;;;;-1.90;78.54;100490.69;4986116;28;19930;-66
2023/02/05 03:36:41;;;;;;;;;;;;;;;-1.93;78.50;100485.69;4982843;28;19984;-67
2023/02/05 03:39:14;;;;;;;;;;;;;;;-1.90;78.92;100482.63;4967430;28;20028;-67
2023/02/05 03:41:55;;;;;;;;;;;;;;;-1.87;78.90;100489.50;4984906;28;19955;-66
2023/02/05 03:44:37;;;;;;;;;;;;;;;-1.87;78.84;100489.50;4967472;28;19961;-66
2023/02/05 03:47:07;;;;;;;;;;;;;;;-1.80;78.88;100495.00;4968109;28;20048;-66
2023/02/05 03:49:39;;;;;;;;;;;;;;;-1.80;79.15;100484.28;4964118;28;19939;-67
2023/02/05 03:52:11;;;;;;;;;;;;;;;-1.78;79.45;100498.34;4983418;28;19936;-67
2023/02/05 03:54:42;;;;;;;;;;;;;;;-1.73;79.51;100495.94;4968505;28;20000;-66
2023/02/05 03:57:16;;;;;;;;;;;;;;;-1.70;79.33;100492.94;4967753;28;19972;-66
2023/02/05 03:59:44;;;;;;;;;;;;;;;-1.72;79.52;100486.88;4966065;28;19930;-66
2023/02/05 04:02:11;;;;;;;;;;;;;;;-1.75;79.54;100498.81;4981277;28;20025;-66
2023/02/05 04:04:40;;;;;;;;;;;;;;;-1.71;79.68;100494.78;4985004;28;19930;-67
2023/02/05 04:07:08;;;;;;;;;;;;;;;-1.69;79.58;100496.44;4948017;28;20483;-66
2023/02/05 04:09:35;;;;;;;;;;;;;;;-1.68;79.92;100498.97;4984551;28;19984;-66
2023/02/05 04:12:01;;;;;;;;;;;;;;;-1.69;79.83;100499.13;4968784;28;19933;-66
2023/02/05 04:14:29;;;;;;;;;;;;;;;-1.68;79.92;100506.16;4966680;28;20419;-66
2023/02/05 04:16:55;;;;;;;;;;;;;;;-1.65;79.77;100495.91;4998983;28;19934;-66
2023/02/05 04:19:22;;;;;;;;;;;;;;;-1.59;79.41;100507.78;4965985;28;19937;-66
2023/02/05 04:21:50;;;;;;;;;;;;;;;-1.56;79.61;100496.69;4967656;28;20423;-66
2023/02/05 04:24:17;;;;;;;;;;;;;;;-1.55;79.42;100500.22;5002321;28;19965;-67
2023/02/05 04:26:43;;;;;;;;;;;;;;;-1.55;79.41;100502.91;5001865;28;19930;-66
2023/02/05 04:29:09;;;;;;;;;;;;;;;-1.56;79.68;100510.09;4967967;28;19929;-68
2023/02/05 04:31:40;;;;;;;;;;;;;;;-1.57;79.62;100509.25;5003596;28;19930;-66
2023/02/05 04:34:06;;;;;;;;;;;;;;;-1.55;79.76;100514.47;4968921;28;19988;-66
2023/02/05 04:36:32;;;;;;;;;;;;;;;-1.52;79.83;100511.41;4999254;28;20536;-66
2023/02/05 04:38:58;;;;;;;;;;;;;;;-1.53;79.67;100515.09;4968969;28;20355;-66
2023/02/05 04:41:25;;;;;;;;;;;;;;;-1.52;79.88;100521.31;4970709;28;20425;-66
2023/02/05 04:43:51;;;;;;;;;;;;;;;-1.50;79.77;100533.53;4951770;28;19930;-66
2023/02/05 04:46:17;;;;;;;;;;;;;;;-1.45;79.70;100536.53;4965124;28;19930;-66
2023/02/05 04:48:43;;;;;;;;;;;;;;;-1.40;79.58;100533.31;4948281;28;19930;-66
2023/02/05 04:51:09;;;;;;;;;;;;;;;-1.35;79.36;100541.66;4984715;28;19937;-66
2023/02/05 04:53:35;;;;;;;;;;;;;;;-1.32;79.15;100540.47;4984795;28;19929;-66
2023/02/05 04:56:05;;;;;;;;;;;;;;;-1.37;78.86;100545.53;4999757;28;19984;-66
2023/02/05 04:58:32;;;;;;;;;;;;;;;-1.39;78.62;100542.19;4953683;28;19936;-66
2023/02/05 05:00:58;;;;;;;;;;;;;;;-1.43;78.59;100542.56;4981694;28;20361;-66
2023/02/05 05:03:24;;;;;;;;;;;;;;;-1.44;78.45;100550.75;4983611;28;19969;-67
2023/02/05 05:05:50;;;;;;;;;;;;;;;-1.45;78.24;100552.63;4984316;28;20040;-67
2023/02/05 05:08:17;;;;;;;;;;;;;;;-1.43;77.70;100552.44;4985456;28;19936;-66
2023/02/05 05:10:43;;;;;;;;;;;;;;;-1.43;77.25;100557.81;4967413;28;19930;-66
2023/02/05 05:13:09;;;;;;;;;;;;;;;-1.44;77.12;100561.50;4981789;28;19930;-66
2023/02/05 05:15:36;;;;;;;;;;;;;;;-1.45;76.54;100558.00;4983299;28;20152;-67
2023/02/05 05:18:02;;;;;;;;;;;;;;;-1.45;76.07;100566.03;4985918;28;19976;-67
2023/02/05 05:20:28;;;;;;;;;;;;;;;-1.48;75.84;100573.59;4985169;28;19969;-67
2023/02/05 05:22:54;;;;;;;;;;;;;;;-1.52;75.40;100567.75;4968878;28;20494;-67
2023/02/05 05:25:20;;;;;;;;;;;;;;;-1.50;75.00;100572.94;4984528;28;20246;-66
2023/02/05 05:27:45;;;;;;;;;;;;;;;-1.52;74.63;100578.47;4983718;28;20308;-66
2023/02/05 05:30:12;;;;;;;;;;;;;;;-1.57;74.48;100572.81;4967792;28;19936;-67
2023/02/05 05:32:39;;;;;;;;;;;;;;;-1.61;74.26;100574.19;4964800;28;19969;-66
2023/02/05 05:35:05;;;;;;;;;;;;;;;-1.65;74.23;100573.69;4977278;28;19977;-67
2023/02/05 05:37:32;;;;;;;;;;;;;;;-1.70;74.05;100581.44;4970153;28;20348;-66
2023/02/05 05:45:30;;;;;;;;;;;;;;;-1.67;73.23;100591.81;4970619;28;20077;-65
2023/02/05 05:47:58;;;;;;;;;;;;;;;-1.64;73.36;100590.59;4970600;28;20021;-65
2023/02/05 05:50:23;;;;;;;;;;;;;;;-1.65;73.07;100596.97;4952345;28;19930;-66
2023/02/05 05:52:49;;;;;;;;;;;;;;;-1.66;73.08;100592.63;4967976;28;19953;-65
2023/02/05 05:55:17;;;;;;;;;;;;;;;-1.62;72.84;100593.97;4967181;28;20215;-66
2023/02/05 05:57:43;;;;;;;;;;;;;;;-1.61;72.79;100595.63;4969363;28;20376;-66
2023/02/05 06:00:09;;;;;;;;;;;;;;;-1.61;72.88;100599.16;4967127;28;19992;-66
2023/02/05 06:02:42;;;;;;;;;;;;;;;-1.57;72.64;100599.63;4969177;28;19930;-66
2023/02/05 06:05:10;;;;;;;;;;;;;;;-1.53;72.48;100592.09;4949794;28;19936;-66
2023/02/05 06:07:36;;;;;;;;;;;;;;;-1.50;72.01;100594.41;4953459;28;19984;-66
2023/02/05 06:10:01;;;;;;;;;;;;;;;-1.50;72.05;100597.91;4970116;28;20402;-66
2023/02/05 06:12:28;;;;;;;;;;;;;;;-1.49;71.76;100596.06;4967362;28;19970;-66
2023/02/05 06:14:54;;;;;;;;;;;;;;;-1.49;71.53;100598.75;4950860;28;19973;-66
2023/02/05 06:17:20;;;;;;;;;;;;;;;-1.53;71.41;100608.19;4968411;28;20389;-66
2023/02/05 06:19:46;;;;;;;;;;;;;;;-1.54;71.47;100606.50;4968991;28;19930;-66
2023/02/05 06:22:13;;;;;;;;;;;;;;;-1.61;71.62;100593.78;4968609;28;19930;-66
2023/02/05 06:24:39;;;;;;;;;;;;;;;-1.54;71.56;100606.50;4966508;28;19934;-66
2023/02/05 06:27:04;;;;;;;;;;;;;;;-1.57;71.71;100607.69;4970891;28;20000;-66
2023/02/05 06:29:30;;;;;;;;;;;;;;;-1.56;71.95;100612.03;4969241;28;20000;-65
2023/02/05 06:31:56;;;;;;;;;;;;;;;-1.53;72.11;100613.53;4978843;28;19929;-67
2023/02/05 06:34:22;;;;;;;;;;;;;;;-1.53;71.97;100618.91;4986497;28;19961;-66
2023/02/05 06:36:47;;;;;;;;;;;;;;;-1.50;72.01;100622.06;4970339;28;20409;-67
2023/02/05 06:39:15;;;;;;;;;;;;;;;-1.49;72.10;100621.03;4985048;28;19930;-66
2023/02/05 06:41:40;;;;;;;;;;;;;;;-1.50;72.29;100616.69;4987431;28;19930;-66
2023/02/05 06:44:06;;;;;;;;;;;;;;;-1.48;72.23;100619.22;4985039;28;19977;-66
2023/02/05 06:46:32;;;;;;;;;;;;;;;-1.47;72.26;100624.41;5000737;28;20301;-66
2023/02/05 06:48:58;;;;;;;;;;;;;;;-1.44;71.93;100621.38;4985976;28;19934;-66
2023/02/05 06:51:23;;;;;;;;;;;;;;;-1.45;72.02;100625.06;4966537;28;20300;-66
2023/02/05 06:53:51;;;;;;;;;;;;;;;-1.45;71.83;100622.38;4978744;28;19930;-66
2023/02/05 06:56:18;;;;;;;;;;;;;;;-1.44;71.67;100634.78;4967712;28;19930;-66
2023/02/05 06:58:44;;;;;;;;;;;;;;;-1.46;71.28;100630.59;4953232;28;19934;-65
2023/02/05 07:01:10;;;;;;;;;;;;;;;-1.46;71.70;100638.66;4949565;28;19934;-66
2023/02/05 07:03:36;;;;;;;;;;;;;;;-1.41;71.42;100638.13;4966725;28;19930;-67
2023/02/05 07:06:02;;;;;;;;;;;;;;;-1.37;71.45;100645.66;4972054;28;19930;-66
2023/02/05 07:08:28;;;;;;;;;;;;;;;-1.40;71.13;100645.16;4987070;28;19977;-66
2023/02/05 07:10:53;;;;;;;;;;;;;;;-1.42;70.96;100642.66;4986185;28;19930;-66
2023/02/05 07:13:20;;;;;;;;;;;;;;;-1.45;71.17;100651.91;4970949;28;20008;-67
2023/02/05 07:15:46;;;;;;;;;;;;;;;-1.49;70.93;100655.09;4968233;28;19930;-67
2023/02/05 07:18:12;;;;;;;;;;;;;;;-1.48;70.78;100648.72;4968003;28;19936;-66
2023/02/05 07:20:38;;;;;;;;;;;;;;;-1.49;70.73;100649.72;4984758;28;19946;-66
2023/02/05 07:23:04;;;;;;;;;;;;;;;-1.51;70.69;100659.81;4986262;28;20232;-66
2023/02/05 07:25:35;;;;;;;;;;;;;;;-1.49;70.31;100666.66;4983162;28;20466;-66
2023/02/05 07:28:00;;;;;;;;;;;;;;;-1.49;70.11;100660.47;4985387;28;20408;-66
2023/02/05 07:30:28;;;;;;;;;;;;;;;-1.49;69.96;100657.78;4947829;28;20028;-66
2023/02/05 07:32:54;;;;;;;;;;;;;;;-1.47;70.05;100659.28;4984345;28;19930;-67
2023/02/05 07:35:19;;;;;;;;;;;;;;;-1.41;70.07;100655.03;4986302;28;19984;-66
2023/02/05 07:37:45;;;;;;;;;;;;;;;-1.35;70.11;100653.50;4987487;28;20612;-67
2023/02/05 07:40:11;;;;;;;;;;;;;;;-1.27;69.86;100663.38;4972101;28;20407;-66
2023/02/05 07:42:37;;;;;;;;;;;;;;;-1.22;69.26;100659.16;4988113;28;19930;-67
2023/02/05 07:45:03;;;;;;;;;;;;;;;-1.16;69.03;100665.66;4952377;28;20037;-66
2023/02/05 07:47:33;;;;;;;;;;;;;;;-1.11;68.72;100668.66;4985877;28;20404;-66
2023/02/05 07:50:00;;;;;;;;;;;;;;;-1.07;68.44;100669.16;5000812;28;19929;-66
2023/02/05 07:52:29;;;;;;;;;;;;;;;-1.05;68.62;100675.16;4986751;28;19928;-66
2023/02/05 07:54:55;;;;;;;;;;;;;;;-1.02;68.12;100674.81;4986374;28;19937;-66
2023/02/05 07:57:21;;;;;;;;;;;;;;;-0.97;68.29;100674.28;4974663;28;19930;-66
2023/02/05 07:59:47;;;;;;;;;;;;;;;-0.93;68.02;100679.13;4950020;28;19930;-66
2023/02/05 08:02:13;;;;;;;;;;;;;;;-0.92;67.80;100680.78;4986808;28;19930;-66
2023/02/05 08:04:40;;;;;;;;;;;;;;;-0.88;67.84;100681.28;4960614;28;19994;-66
2023/02/05 08:07:06;;;;;;;;;;;;;;;-0.85;67.55;100680.94;4983607;28;19965;-67
2023/02/05 08:09:32;;;;;;;;;;;;;;;-0.76;67.49;100681.69;4965780;28;19968;-66
2023/02/05 08:12:02;;;;;;;;;;;;;;;-0.72;67.11;100685.69;4770314;28;10000260;-66
2023/02/05 08:14:30;;;;;;;;;;;;;;;-0.68;67.18;100688.88;4963902;28;19973;-66
2023/02/05 08:16:57;;;;;;;;;;;;;;;-0.63;66.73;100684.63;4926083;28;19977;-66
2023/02/05 08:19:23;;;;;;;;;;;;;;;-0.55;66.72;100688.25;4965502;28;19936;-66
2023/02/05 08:21:50;;;;;;;;;;;;;;;-0.50;66.34;100689.41;4973524;28;20040;-66
2023/02/05 08:24:16;;;;;;;;;;;;;;;-0.46;66.13;100695.25;4945387;28;20008;-67
2023/02/05 08:26:42;;;;;;;;;;;;;;;-0.41;66.08;100697.41;4946063;28;20329;-66
2023/02/05 08:29:08;;;;;;;;;;;;;;;-0.36;65.59;100692.31;4944832;28;19938;-67
2023/02/05 08:31:34;;;;;;;;;;;;;;;-0.33;65.26;100691.94;4943565;28;19977;-67
2023/02/05 08:34:00;;;;;;;;;;;;;;;-0.27;65.12;100695.78;4949943;28;20346;-67
2023/02/05 08:36:26;;;;;;;;;;;;;;;-0.24;64.84;100690.03;4965093;28;19930;-66
2023/02/05 08:38:53;;;;;;;;;;;;;;;-0.22;64.65;100696.91;4968665;28;20572;-67
2023/02/05 08:41:19;;;;;;;;;;;;;;;-0.16;64.82;100698.03;4949660;28;19964;-67
2023/02/05 08:43:46;;;;;;;;;;;;;;;-0.09;64.56;100690.09;4962084;28;20397;-67
2023/02/05 08:46:13;;;;;;;;;;;;;;;0.02;64.61;100692.34;4977337;28;19992;-66
2023/02/05 08:48:39;;;;;;;;;;;;;;;0.14;64.34;100695.41;4982651;28;19973;-66
2023/02/05 08:51:07;;;;;;;;;;;;;;;0.24;64.18;100704.03;4949510;28;20107;-66
2023/02/05 08:53:33;;;;;;;;;;;;;;;0.32;63.76;100694.22;4975864;28;20013;-66
2023/02/05 08:56:04;;;;;;;;;;;;;;;0.41;63.56;100702.00;4960630;28;19930;-66
2023/02/05 08:58:30;;;;;;;;;;;;;;;0.46;63.26;100696.06;4948490;28;19961;-66
2023/02/05 09:01:00;;;;;;;;;;;;;;;0.51;63.11;100693.63;4959988;28;20023;-66
2023/02/05 09:03:25;;;;;;;;;;;;;;;0.46;62.97;100697.91;4980221;28;19930;-66
2023/02/05 09:05:51;;;;;;;;;;;;;;;0.42;62.94;100695.59;4976853;28;19930;-66
2023/02/05 09:08:17;;;;;;;;;;;;;;;0.44;62.90;100699.94;4961663;28;20012;-66
2023/02/05 09:10:43;;;;;;;;;;;;;;;0.46;63.06;100695.22;4953991;28;20511;-66
2023/02/05 09:13:11;;;;;;;;;;;;;;;0.46;63.47;100695.22;4957267;28;19930;-66
2023/02/05 09:15:39;;;;;;;;;;;;;;;0.52;63.85;100698.00;4973469;28;19937;-66
2023/02/05 09:18:05;;;;;;;;;;;;;;;0.64;63.49;100698.38;4989882;28;19937;-66
2023/02/05 09:20:31;;;;;;;;;;;;;;;0.86;63.26;100701.13;4988472;28;19930;-66
2023/02/05 09:22:56;;;;;;;;;;;;;;;1.17;62.79;100697.34;4988536;28;19937;-66
2023/02/05 09:25:22;;;;;;;;;;;;;;;1.62;62.11;100704.41;4972785;28;19952;-66
2023/02/05 09:27:48;;;;;;;;;;;;;;;1.88;61.11;100695.72;4971648;28;19973;-66
2023/02/05 09:30:15;;;;;;;;;;;;;;;2.12;60.33;100704.44;4973285;28;19930;-67
2023/02/05 09:32:41;;;;;;;;;;;;;;;2.34;58.14;100701.66;4987115;28;19937;-66
2023/02/05 09:35:07;;;;;;;;;;;;;;;2.82;57.31;100698.19;4972007;28;19930;-66
2023/02/05 09:37:33;;;;;;;;;;;;;;;3.19;55.98;100696.00;4970371;28;20361;-66
2023/02/05 09:39:58;;;;;;;;;;;;;;;3.75;54.25;100699.44;4967276;28;19934;-67
2023/02/05 09:42:29;;;;;;;;;;;;;;;4.39;52.68;100705.22;4952770;28;19930;-67
2023/02/05 09:45:00;;;;;;;;;;;;;;;4.47;51.97;100706.88;4958276;28;19929;-68
2023/02/05 09:47:30;;;;;;;;;;;;;;;4.15;52.23;100695.88;4987073;28;20117;-67
2023/02/05 09:50:00;;;;;;;;;;;;;;;3.86;52.20;100700.69;4983835;28;20028;-68
2023/02/05 09:52:28;;;;;;;;;;;;;;;3.33;53.12;100704.16;4972053;28;20394;-67
2023/02/05 09:54:57;;;;;;;;;;;;;;;3.08;53.38;100699.28;4952919;28;20033;-67
2023/02/05 09:57:29;;;;;;;;;;;;;;;2.76;54.30;100704.38;4951042;28;19969;-67
2023/02/05 09:59:56;;;;;;;;;;;;;;;2.50;54.80;100704.03;4970263;28;20415;-67
2023/02/05 10:02:25;;;;;;;;;;;;;;;2.32;55.55;100703.72;4962023;28;20057;-66
2023/02/05 10:04:53;;;;;;;;;;;;;;;2.10;55.66;100704.59;4988792;28;19973;-66
2023/02/05 10:07:29;;;;;;;;;;;;;;;2.01;56.20;100710.34;4989996;28;20032;-66
2023/02/05 10:10:14;;;;;;;;;;;;;;;2.02;56.78;100702.03;4988522;28;19936;-66
2023/02/05 10:12:51;;;;;;;;;;;;;;;1.95;60.40;100706.56;4989816;28;20012;-67
2023/02/05 10:15:24;;;;;;;;;;;;;;;1.89;63.28;100705.47;4974560;28;19941;-66
2023/02/05 10:17:59;;;;;;;;;;;;;;;1.83;64.67;100706.28;4971474;28;19930;-67
2023/02/05 10:20:31;;;;;;;;;;;;;;;2.04;64.77;100712.66;4951685;28;20068;-68
2023/02/05 10:23:07;;;;;;;;;;;;;;;2.22;63.96;100709.47;4971024;28;19976;-67
2023/02/05 10:25:54;;;;;;;;;;;;;;;2.51;64.10;100704.88;5000844;28;20207;-66
2023/02/05 10:28:31;;;;;;;;;;;;;;;2.61;63.96;100716.13;4954200;28;20449;-67
2023/02/05 10:31:03;;;;;;;;;;;;;;;3.77;62.46;100710.03;4985815;28;20017;-66
2023/02/05 10:33:36;;;;;;;;;;;;;;;5.64;55.59;100705.03;4985408;28;19933;-67
2023/02/05 10:36:05;;;;;;;;;;;;;;;6.96;51.36;100704.22;4978057;28;19977;-67
2023/02/05 10:38:33;;;;;;;;;;;;;;;7.24;48.60;100702.78;4971477;28;19929;-66
2023/02/05 10:41:03;;;;;;;;;;;;;;;6.30;49.74;100701.19;4968323;28;20357;-66
2023/02/05 10:43:34;;;;;;;;;;;;;;;5.20;51.98;100704.06;4985497;28;19941;-67
2023/02/05 10:46:00;;;;;;;;;;;;;;;6.15;50.85;100709.69;4964068;28;20056;-66
2023/02/05 10:48:34;;;;;;;;;;;;;;;7.45;47.84;100711.53;4975758;28;20436;-67
2023/02/05 10:51:00;;;;;;;;;;;;;;;8.45;44.85;100709.03;4988781;28;20731;-67
2023/02/05 10:53:28;;;;;;;;;;;;;;;9.12;42.55;100715.09;4969394;28;20353;-68
2023/02/05 10:55:55;;;;;;;;;;;;;;;9.71;40.94;100708.53;4986112;28;19964;-67
2023/02/05 10:58:34;;;;;;;;;;;;;;;9.86;39.97;100709.84;4963267;28;20468;-68
2023/02/05 11:01:01;;;;;;;;;;;;;;;9.43;39.74;100714.81;4967375;28;20757;-67
2023/02/05 11:03:27;;;;;;;;;;;;;;;9.29;39.00;100706.13;4961509;28;20025;-67
2023/02/05 11:05:53;;;;;;;;;;;;;;;9.58;38.33;100704.19;4967211;28;20345;-68
2023/02/05 11:08:35;;;;;;;;;;;;;;;9.72;37.26;100702.00;4965296;28;19941;-68
2023/02/05 11:11:01;;;;;;;;;;;;;;;9.95;37.40;100700.16;4965133;28;19930;-68
2023/02/05 11:13:27;;;;;;;;;;;;;;;10.39;36.25;100706.84;4965541;28;20005;-68
2023/02/05 11:15:53;;;;;;;;;;;;;;;10.47;36.33;100711.91;4964414;28;20472;-68
2023/02/05 11:18:21;;;;;;;;;;;;;;;10.48;36.44;100710.84;4965576;28;19930;-68
2023/02/05 11:20:53;;;;;;;;;;;;;;;10.80;35.96;100710.16;4961116;28;19930;-68
2023/02/05 11:23:21;;;;;;;;;;;;;;;11.21;35.24;100709.81;4962181;28;19934;-70
2023/02/05 11:25:53;;;;;;;;;;;;;;;11.35;35.05;100702.84;4964092;28;20121;-68
2023/02/05 11:28:19;;;;;;;;;;;;;;;10.95;34.99;100700.50;4981303;28;20398;-68
2023/02/05 11:30:45;;;;;;;;;;;;;;;9.50;36.58;100702.69;4966078;28;19940;-68
2023/02/05 11:33:16;;;;;;;;;;;;;;;7.84;38.61;100706.50;4966448;28;19934;-67
2023/02/05 11:35:47;;;;;;;;;;;;;;;6.12;41.68;100716.38;4966754;28;20070;-67
2023/02/05 11:38:17;;;;;;;;;;;;;;;4.83;44.36;100716.31;4966751;28;19937;-67
2023/02/05 11:40:51;;;;;;;;;;;;;;;3.86;46.80;100719.63;4964540;28;19937;-67
2023/02/05 11:43:21;;;;;;;;;;;;;;;3.18;48.74;100726.78;4965260;28;19934;-67
2023/02/05 11:45:49;;;;;;;;;;;;;;;2.68;50.04;100718.88;4957219;28;20447;-67
2023/02/05 11:48:30;;;;;;;;;;;;;;;2.39;50.99;100718.06;4949179;29;19931;-67
2023/02/05 11:50:55;;;;;;;;;;;;;;;2.17;52.11;100720.00;4947745;29;19931;-67
2023/02/05 11:53:22;;;;;;;;;;;;;;;2.01;52.43;100724.66;4963635;28;20322;-67
2023/02/05 11:55:54;;;;;;;;;;;;;;;1.86;53.18;100729.31;4967468;28;19945;-66
2023/02/05 11:58:22;;;;;;;;;;;;;;;1.76;53.53;100718.84;4966680;28;20024;-67
2023/02/05 12:00:52;;;;;;;;;;;;;;;1.53;53.87;100718.03;4946070;28;19937;-66
2023/02/05 12:03:18;;;;;;;;;;;;;;;1.31;54.87;100721.75;4965856;28;20045;-67
2023/02/05 12:05:49;;;;;;;;;;;;;;;1.11;55.58;100719.66;4966355;28;20053;-67
2023/02/05 12:08:21;;;;;;;;;;;;;;;1.08;55.99;100733.50;4950549;28;19952;-67
2023/02/05 12:10:50;;;;;;;;;;;;;;;1.03;56.21;100726.00;4954398;28;19936;-67
2023/02/05 12:13:23;;;;;;;;;;;;;;;1.00;56.33;100723.66;4952328;28;19930;-67
2023/02/05 12:15:55;;;;;;;;;;;;;;;1.01;56.42;100732.59;4966355;28;20408;-66
2023/02/05 12:18:28;;;;;;;;;;;;;;;0.98;56.71;100725.72;4964557;28;19937;-66
2023/02/05 12:21:01;;;;;;;;;;;;;;;0.93;56.59;100726.28;4965034;28;19933;-65
2023/02/05 12:23:30;;;;;;;;;;;;;;;0.84;56.71;100722.84;4967659;28;19930;-66
2023/02/05 12:26:07;;;;;;;;;;;;;;;0.73;56.91;100728.72;4962308;28;19930;-66
2023/02/05 12:28:39;;;;;;;;;;;;;;;0.64;57.26;100727.16;4964379;28;19996;-66
2023/02/05 12:31:14;;;;;;;;;;;;;;;0.55;57.60;100734.47;4966388;28;19930;-66
2023/02/05 12:33:55;;;;;;;;;;;;;;;0.47;57.95;100732.72;4963352;28;20033;-65
2023/02/05 12:36:28;;;;;;;;;;;;;;;0.30;58.36;100721.28;4965161;28;20379;-65
2023/02/05 12:38:57;;;;;;;;;;;;;;;0.27;58.66;100738.66;4964136;28;20354;-65
2023/02/05 12:41:29;;;;;;;;;;;;;;;0.23;59.28;100734.63;4963192;28;19930;-65
2023/02/05 12:44:03;;;;;;;;;;;;;;;0.21;59.36;100731.28;4947434;28;19930;-65
2023/02/05 12:46:41;;;;;;;;;;;;;;;0.12;59.18;100733.22;4968790;28;20233;-65
2023/02/05 12:49:14;;;;;;;;;;;;;;;0.06;59.34;100735.81;4969518;28;20301;-65
2023/02/05 12:51:46;;;;;;;;;;;;;;;0.01;59.23;100735.53;4967655;28;20036;-65